Clear Lake, IA

9:37 AM CDT on September 20, 2014 (GMT -0500)
South of Oak Hills Golf C. | Change Station
CLOSE
Current Station
Personal Weather Station
Location: Clear Lake, IA
Elevation: 1263 ft
Nearby Weather Stations

Elev 1263 ft 43.11 °N, 93.38 °W | Updated 3 seconds ago

Rain
Rain
65.5 °F
Feels Like 65.5 °F
N
4.0
Wind Variable Wind from West
Gusts 9.0 mph

Today
High -- | Low -- °F
--% Chance of Precip.
Yesterday
High -- | Low -- °F
Precip. -- in
6:58 AM 7:14 PM
Waning Crescent, 12% visible
Pressure 29.86 in
Visibility 10.0 miles
Clouds Few 4500 ft
Scattered Clouds 9500 ft
Mostly Cloudy 11000 ft
Dew Point 65 °F
Humidity 97%
Rainfall 0.54 in
Snow Depth Not available.
UV 1 out of 12
Pollen 3.20 out of 12
Air Quality Not available.
Flu Activity Not available.
SPECI KMCW 201424Z AUTO 23011KT 10SM FEW045 SCT095 BKN110 19/17 A2986 RMK AO2 WSHFT 1404 LTG DSNT E AND SE RAE13 TSB1356E11 P0002 T01890172

More Conditions Fewer Conditions

Pressure 29.86 in
Visibility 10.0 miles
Clouds Few 4500 ft
Scattered Clouds 9500 ft
Mostly Cloudy 11000 ft
Dew Point 65 °F
Humidity 97%
Rainfall 0.54 in
Snow Depth Not available.
UV 1 out of 12
Pollen 3.20 out of 12
Air Quality Not available.
Flu Activity Not available.
SPECI KMCW 201424Z AUTO 23011KT 10SM FEW045 SCT095 BKN110 19/17 A2986 RMK AO2 WSHFT 1404 LTG DSNT E AND SE RAE13 TSB1356E11 P0002 T01890172

More Conditions Fewer Conditions

10-Day Weather Forecast

Almanac

Astronomy

Sep. 20, 2014 Rise Set
Actual Time 6:58 AM CDT 7:14 PM CDT
Civil Twilight 6:30 AM CDT 7:42 PM CDT
Nautical Twilight 5:56 AM CDT 8:16 PM CDT
Astronomical Twilight 5:22 AM CDT 8:50 PM CDT
Moon 3:34 AM CDT 5:21 PM CDT
Length of Visible Light 13h 12m
Length of Day
12h 15m
Tomorrow will be 2m 54s shorter.
Waning Crescent, 12% of the Moon is Illuminated
Today
Waning Crescent
Sep 24
New
Oct 1
First Quarter
Oct 8
Full
Oct 15
Last Quarter

Today's Extremes

State Highs State Lows

Community

WunderPhotos

Upload Photos

1,754,872 photos uploaded!

WunderBlogs® & News

Nearby

Snow Depth

Station Depth Elevation
No new snow has been reported.

Earthquake Activity

City Distance Mag. Time & Date
No recent earthquake activity has been reported nearby.
Minimum magnitude displayed is 2.5.

Coastal Water Temperatures

Place Temperature
No Stations Reporting

Nearby Weather Stations